sensor_id;sensor_type;location;lat;lon;timestamp;P1;durP1;ratioP1;P2;durP2;ratioP2
3054;SDS011;1537;52.018;8.542;2022-10-31T00:03:17;24.47;;;12.87;;
3054;SDS011;1537;52.018;8.542;2022-10-31T00:06:41;20.33;;;12.67;;
3054;SDS011;1537;52.018;8.542;2022-10-31T00:10:05;17.47;;;12.03;;
3054;SDS011;1537;52.018;8.542;2022-10-31T00:13:29;21.27;;;12.10;;
3054;SDS011;1537;52.018;8.542;2022-10-31T00:16:54;24.17;;;15.23;;
3054;SDS011;1537;52.018;8.542;2022-10-31T00:20:19;21.67;;;15.40;;
3054;SDS011;1537;52.018;8.542;2022-10-31T00:23:42;24.30;;;14.77;;
3054;SDS011;1537;52.018;8.542;2022-10-31T00:27:06;19.60;;;13.87;;
3054;SDS011;1537;52.018;8.542;2022-10-31T00:30:30;22.10;;;13.20;;
3054;SDS011;1537;52.018;8.542;2022-10-31T00:33:54;21.50;;;13.40;;
3054;SDS011;1537;52.018;8.542;2022-10-31T00:37:20;25.40;;;14.53;;
3054;SDS011;1537;52.018;8.542;2022-10-31T00:40:44;24.30;;;16.10;;
3054;SDS011;1537;52.018;8.542;2022-10-31T00:44:07;27.60;;;17.37;;
3054;SDS011;1537;52.018;8.542;2022-10-31T00:47:31;24.27;;;15.30;;
3054;SDS011;1537;52.018;8.542;2022-10-31T00:50:55;27.50;;;16.30;;
3054;SDS011;1537;52.018;8.542;2022-10-31T00:54:20;26.80;;;14.13;;
3054;SDS011;1537;52.018;8.542;2022-10-31T00:57:45;22.40;;;14.70;;
3054;SDS011;1537;52.018;8.542;2022-10-31T01:01:09;19.90;;;16.17;;
3054;SDS011;1537;52.018;8.542;2022-10-31T01:04:33;20.40;;;14.67;;
3054;SDS011;1537;52.018;8.542;2022-10-31T01:07:56;28.43;;;16.73;;
3054;SDS011;1537;52.018;8.542;2022-10-31T01:11:23;25.80;;;15.73;;
3054;SDS011;1537;52.018;8.542;2022-10-31T01:14:47;25.60;;;16.27;;
3054;SDS011;1537;52.018;8.542;2022-10-31T01:18:12;23.43;;;16.17;;
3054;SDS011;1537;52.018;8.542;2022-10-31T01:21:36;27.73;;;16.00;;
3054;SDS011;1537;52.018;8.542;2022-10-31T01:25:00;21.33;;;15.17;;
3054;SDS011;1537;52.018;8.542;2022-10-31T01:28:25;26.43;;;16.53;;
3054;SDS011;1537;52.018;8.542;2022-10-31T01:31:49;21.90;;;16.70;;
3054;SDS011;1537;52.018;8.542;2022-10-31T01:35:12;26.40;;;17.90;;
3054;SDS011;1537;52.018;8.542;2022-10-31T01:38:37;21.73;;;16.00;;
3054;SDS011;1537;52.018;8.542;2022-10-31T01:42:00;25.70;;;15.50;;
3054;SDS011;1537;52.018;8.542;2022-10-31T01:45:25;22.77;;;15.80;;
3054;SDS011;1537;52.018;8.542;2022-10-31T01:48:49;23.63;;;16.40;;
3054;SDS011;1537;52.018;8.542;2022-10-31T01:52:16;28.23;;;16.53;;
3054;SDS011;1537;52.018;8.542;2022-10-31T01:55:44;24.40;;;16.50;;
3054;SDS011;1537;52.018;8.542;2022-10-31T01:59:10;23.20;;;16.27;;
3054;SDS011;1537;52.018;8.542;2022-10-31T02:02:37;25.03;;;14.70;;
3054;SDS011;1537;52.018;8.542;2022-10-31T02:06:02;23.63;;;15.37;;
3054;SDS011;1537;52.018;8.542;2022-10-31T02:09:30;24.60;;;16.10;;
3054;SDS011;1537;52.018;8.542;2022-10-31T02:12:57;27.03;;;15.47;;
3054;SDS011;1537;52.018;8.542;2022-10-31T02:16:24;21.10;;;16.60;;
3054;SDS011;1537;52.018;8.542;2022-10-31T02:19:51;23.60;;;15.53;;
3054;SDS011;1537;52.018;8.542;2022-10-31T02:23:28;21.90;;;15.57;;
3054;SDS011;1537;52.018;8.542;2022-10-31T02:27:21;25.40;;;15.50;;
3054;SDS011;1537;52.018;8.542;2022-10-31T02:31:10;29.80;;;18.27;;
3054;SDS011;1537;52.018;8.542;2022-10-31T02:34:43;24.50;;;15.83;;
3054;SDS011;1537;52.018;8.542;2022-10-31T02:38:20;25.23;;;15.97;;
3054;SDS011;1537;52.018;8.542;2022-10-31T02:41:57;20.87;;;15.37;;
3054;SDS011;1537;52.018;8.542;2022-10-31T02:45:33;24.27;;;15.90;;
3054;SDS011;1537;52.018;8.542;2022-10-31T02:49:05;28.97;;;16.57;;
3054;SDS011;1537;52.018;8.542;2022-10-31T02:52:33;21.90;;;15.90;;
3054;SDS011;1537;52.018;8.542;2022-10-31T02:55:59;20.70;;;15.90;;
3054;SDS011;1537;52.018;8.542;2022-10-31T02:59:24;20.93;;;14.80;;
3054;SDS011;1537;52.018;8.542;2022-10-31T03:02:52;20.50;;;15.30;;
3054;SDS011;1537;52.018;8.542;2022-10-31T03:06:26;20.53;;;15.40;;
3054;SDS011;1537;52.018;8.542;2022-10-31T03:09:59;24.33;;;15.63;;
3054;SDS011;1537;52.018;8.542;2022-10-31T03:13:29;26.07;;;17.03;;
3054;SDS011;1537;52.018;8.542;2022-10-31T03:16:59;21.80;;;16.37;;
3054;SDS011;1537;52.018;8.542;2022-10-31T03:20:27;24.80;;;16.50;;
3054;SDS011;1537;52.018;8.542;2022-10-31T03:23:58;23.93;;;17.83;;
3054;SDS011;1537;52.018;8.542;2022-10-31T03:27:23;20.77;;;17.80;;
3054;SDS011;1537;52.018;8.542;2022-10-31T03:30:49;33.47;;;17.43;;
3054;SDS011;1537;52.018;8.542;2022-10-31T03:34:15;27.03;;;16.30;;
3054;SDS011;1537;52.018;8.542;2022-10-31T03:37:42;25.70;;;15.60;;
3054;SDS011;1537;52.018;8.542;2022-10-31T03:41:12;23.00;;;14.90;;
3054;SDS011;1537;52.018;8.542;2022-10-31T03:44:40;24.13;;;15.37;;
3054;SDS011;1537;52.018;8.542;2022-10-31T03:48:08;22.70;;;15.80;;
3054;SDS011;1537;52.018;8.542;2022-10-31T03:51:35;20.20;;;15.30;;
3054;SDS011;1537;52.018;8.542;2022-10-31T03:55:05;21.73;;;15.60;;
3054;SDS011;1537;52.018;8.542;2022-10-31T03:58:35;25.43;;;15.20;;
3054;SDS011;1537;52.018;8.542;2022-10-31T04:02:04;22.33;;;15.20;;
3054;SDS011;1537;52.018;8.542;2022-10-31T04:05:31;22.40;;;15.97;;
3054;SDS011;1537;52.018;8.542;2022-10-31T04:08:57;34.37;;;16.83;;
3054;SDS011;1537;52.018;8.542;2022-10-31T04:12:24;22.83;;;16.40;;
3054;SDS011;1537;52.018;8.542;2022-10-31T04:16:06;23.17;;;16.50;;
3054;SDS011;1537;52.018;8.542;2022-10-31T04:19:37;23.10;;;15.90;;
3054;SDS011;1537;52.018;8.542;2022-10-31T04:23:01;28.63;;;16.10;;
3054;SDS011;1537;52.018;8.542;2022-10-31T04:26:26;24.27;;;16.33;;
3054;SDS011;1537;52.018;8.542;2022-10-31T04:29:50;33.40;;;18.07;;
3054;SDS011;1537;52.018;8.542;2022-10-31T04:33:15;27.60;;;17.53;;
3054;SDS011;1537;52.018;8.542;2022-10-31T04:36:41;25.47;;;17.70;;
3054;SDS011;1537;52.018;8.542;2022-10-31T04:40:04;32.20;;;19.77;;
3054;SDS011;1537;52.018;8.542;2022-10-31T04:43:47;33.43;;;18.83;;
3054;SDS011;1537;52.018;8.542;2022-10-31T04:47:11;31.63;;;19.80;;
3054;SDS011;1537;52.018;8.542;2022-10-31T04:50:37;27.77;;;18.43;;
3054;SDS011;1537;52.018;8.542;2022-10-31T04:54:02;25.67;;;18.20;;
3054;SDS011;1537;52.018;8.542;2022-10-31T04:58:01;29.97;;;18.17;;
3054;SDS011;1537;52.018;8.542;2022-10-31T05:01:28;22.17;;;17.90;;
3054;SDS011;1537;52.018;8.542;2022-10-31T05:04:54;33.10;;;18.33;;
3054;SDS011;1537;52.018;8.542;2022-10-31T05:08:19;28.30;;;20.40;;
3054;SDS011;1537;52.018;8.542;2022-10-31T05:11:45;28.13;;;18.93;;
3054;SDS011;1537;52.018;8.542;2022-10-31T05:15:29;25.73;;;19.27;;
3054;SDS011;1537;52.018;8.542;2022-10-31T05:19:11;36.37;;;20.50;;
3054;SDS011;1537;52.018;8.542;2022-10-31T05:22:58;29.10;;;20.97;;
3054;SDS011;1537;52.018;8.542;2022-10-31T05:26:24;27.70;;;21.73;;
3054;SDS011;1537;52.018;8.542;2022-10-31T05:29:49;32.70;;;21.00;;
3054;SDS011;1537;52.018;8.542;2022-10-31T05:33:12;26.93;;;20.17;;
3054;SDS011;1537;52.018;8.542;2022-10-31T05:36:55;24.63;;;18.60;;
3054;SDS011;1537;52.018;8.542;2022-10-31T05:40:19;26.50;;;18.43;;
3054;SDS011;1537;52.018;8.542;2022-10-31T05:43:46;34.03;;;18.23;;
3054;SDS011;1537;52.018;8.542;2022-10-31T05:47:12;30.00;;;18.10;;
3054;SDS011;1537;52.018;8.542;2022-10-31T05:51:05;22.87;;;17.23;;
3054;SDS011;1537;52.018;8.542;2022-10-31T05:54:28;33.67;;;17.50;;
3054;SDS011;1537;52.018;8.542;2022-10-31T05:57:53;32.27;;;18.47;;
3054;SDS011;1537;52.018;8.542;2022-10-31T06:01:22;33.43;;;19.40;;
3054;SDS011;1537;52.018;8.542;2022-10-31T06:04:46;25.27;;;17.70;;
3054;SDS011;1537;52.018;8.542;2022-10-31T06:08:10;33.70;;;21.67;;
3054;SDS011;1537;52.018;8.542;2022-10-31T06:11:35;30.87;;;20.07;;
3054;SDS011;1537;52.018;8.542;2022-10-31T06:14:59;27.77;;;18.97;;
3054;SDS011;1537;52.018;8.542;2022-10-31T06:18:25;25.37;;;18.20;;
3054;SDS011;1537;52.018;8.542;2022-10-31T06:21:49;29.77;;;18.03;;
3054;SDS011;1537;52.018;8.542;2022-10-31T06:25:14;27.63;;;18.27;;
3054;SDS011;1537;52.018;8.542;2022-10-31T06:28:43;27.20;;;18.60;;
3054;SDS011;1537;52.018;8.542;2022-10-31T06:32:23;29.03;;;19.67;;
3054;SDS011;1537;52.018;8.542;2022-10-31T06:35:48;28.27;;;17.90;;
3054;SDS011;1537;52.018;8.542;2022-10-31T06:39:12;24.70;;;17.30;;
3054;SDS011;1537;52.018;8.542;2022-10-31T06:42:36;26.13;;;17.37;;
3054;SDS011;1537;52.018;8.542;2022-10-31T06:46:02;27.27;;;18.90;;
3054;SDS011;1537;52.018;8.542;2022-10-31T06:49:30;24.40;;;17.07;;
3054;SDS011;1537;52.018;8.542;2022-10-31T06:52:58;22.97;;;16.77;;
3054;SDS011;1537;52.018;8.542;2022-10-31T06:56:22;32.67;;;19.23;;
3054;SDS011;1537;52.018;8.542;2022-10-31T06:59:49;27.83;;;19.90;;
3054;SDS011;1537;52.018;8.542;2022-10-31T07:03:26;29.07;;;18.73;;
3054;SDS011;1537;52.018;8.542;2022-10-31T07:06:50;28.90;;;19.90;;
3054;SDS011;1537;52.018;8.542;2022-10-31T07:10:16;31.70;;;20.00;;
3054;SDS011;1537;52.018;8.542;2022-10-31T07:13:47;30.90;;;18.93;;
3054;SDS011;1537;52.018;8.542;2022-10-31T07:17:10;24.73;;;18.53;;
3054;SDS011;1537;52.018;8.542;2022-10-31T07:20:37;28.37;;;18.90;;
3054;SDS011;1537;52.018;8.542;2022-10-31T07:24:02;29.87;;;18.53;;
3054;SDS011;1537;52.018;8.542;2022-10-31T07:27:56;25.13;;;17.97;;
3054;SDS011;1537;52.018;8.542;2022-10-31T07:31:21;24.77;;;17.83;;
3054;SDS011;1537;52.018;8.542;2022-10-31T07:34:46;25.40;;;15.57;;
3054;SDS011;1537;52.018;8.542;2022-10-31T07:38:18;24.40;;;15.63;;
3054;SDS011;1537;52.018;8.542;2022-10-31T07:41:42;24.13;;;15.73;;
3054;SDS011;1537;52.018;8.542;2022-10-31T07:45:07;27.97;;;16.83;;
3054;SDS011;1537;52.018;8.542;2022-10-31T07:48:51;23.43;;;15.30;;
3054;SDS011;1537;52.018;8.542;2022-10-31T07:52:59;26.53;;;15.50;;
3054;SDS011;1537;52.018;8.542;2022-10-31T07:56:39;29.50;;;17.50;;
3054;SDS011;1537;52.018;8.542;2022-10-31T08:00:04;29.10;;;17.10;;
3054;SDS011;1537;52.018;8.542;2022-10-31T08:03:36;32.83;;;19.57;;
3054;SDS011;1537;52.018;8.542;2022-10-31T08:07:19;25.50;;;16.83;;
3054;SDS011;1537;52.018;8.542;2022-10-31T08:10:50;28.90;;;16.87;;
3054;SDS011;1537;52.018;8.542;2022-10-31T08:14:14;29.17;;;17.90;;
3054;SDS011;1537;52.018;8.542;2022-10-31T08:17:39;21.60;;;16.20;;
3054;SDS011;1537;52.018;8.542;2022-10-31T08:21:04;23.87;;;16.27;;
3054;SDS011;1537;52.018;8.542;2022-10-31T08:24:28;24.40;;;16.83;;
3054;SDS011;1537;52.018;8.542;2022-10-31T08:27:53;25.57;;;16.47;;
3054;SDS011;1537;52.018;8.542;2022-10-31T08:31:19;24.90;;;17.40;;
3054;SDS011;1537;52.018;8.542;2022-10-31T08:34:46;25.60;;;17.97;;
3054;SDS011;1537;52.018;8.542;2022-10-31T08:38:28;28.10;;;17.60;;
3054;SDS011;1537;52.018;8.542;2022-10-31T08:41:53;25.73;;;19.13;;
3054;SDS011;1537;52.018;8.542;2022-10-31T08:45:17;25.73;;;18.83;;
3054;SDS011;1537;52.018;8.542;2022-10-31T08:48:40;28.30;;;18.70;;
3054;SDS011;1537;52.018;8.542;2022-10-31T08:52:06;28.30;;;18.63;;
3054;SDS011;1537;52.018;8.542;2022-10-31T08:55:36;27.60;;;17.27;;
3054;SDS011;1537;52.018;8.542;2022-10-31T08:59:16;24.60;;;17.17;;
3054;SDS011;1537;52.018;8.542;2022-10-31T09:03:18;27.57;;;18.13;;
3054;SDS011;1537;52.018;8.542;2022-10-31T09:06:43;33.43;;;17.80;;
3054;SDS011;1537;52.018;8.542;2022-10-31T09:10:29;23.83;;;17.57;;
3054;SDS011;1537;52.018;8.542;2022-10-31T09:13:53;30.93;;;18.07;;
3054;SDS011;1537;52.018;8.542;2022-10-31T09:17:46;27.87;;;17.30;;
3054;SDS011;1537;52.018;8.542;2022-10-31T09:21:33;30.93;;;20.33;;
3054;SDS011;1537;52.018;8.542;2022-10-31T09:24:57;31.50;;;18.40;;
3054;SDS011;1537;52.018;8.542;2022-10-31T09:28:23;27.17;;;18.60;;
3054;SDS011;1537;52.018;8.542;2022-10-31T09:31:48;30.53;;;19.00;;
3054;SDS011;1537;52.018;8.542;2022-10-31T09:35:38;27.27;;;18.07;;
3054;SDS011;1537;52.018;8.542;2022-10-31T09:39:02;26.60;;;17.07;;
3054;SDS011;1537;52.018;8.542;2022-10-31T09:42:38;29.27;;;18.60;;
3054;SDS011;1537;52.018;8.542;2022-10-31T09:46:23;27.07;;;19.90;;
3054;SDS011;1537;52.018;8.542;2022-10-31T09:49:55;27.80;;;18.33;;
3054;SDS011;1537;52.018;8.542;2022-10-31T09:53:31;27.47;;;19.70;;
3054;SDS011;1537;52.018;8.542;2022-10-31T09:57:02;30.87;;;19.37;;
3054;SDS011;1537;52.018;8.542;2022-10-31T10:00:26;28.83;;;19.07;;
3054;SDS011;1537;52.018;8.542;2022-10-31T10:03:53;28.73;;;19.40;;
3054;SDS011;1537;52.018;8.542;2022-10-31T10:07:49;29.93;;;18.73;;
3054;SDS011;1537;52.018;8.542;2022-10-31T10:11:55;27.80;;;19.67;;
3054;SDS011;1537;52.018;8.542;2022-10-31T10:15:33;28.43;;;19.10;;
3054;SDS011;1537;52.018;8.542;2022-10-31T10:19:14;28.40;;;19.90;;
3054;SDS011;1537;52.018;8.542;2022-10-31T10:22:50;28.13;;;19.17;;
3054;SDS011;1537;52.018;8.542;2022-10-31T10:26:19;29.30;;;18.93;;
3054;SDS011;1537;52.018;8.542;2022-10-31T10:29:45;30.97;;;17.87;;
3054;SDS011;1537;52.018;8.542;2022-10-31T10:33:14;26.73;;;18.57;;
3054;SDS011;1537;52.018;8.542;2022-10-31T10:36:44;24.27;;;17.27;;
3054;SDS011;1537;52.018;8.542;2022-10-31T10:40:13;25.83;;;18.37;;
3054;SDS011;1537;52.018;8.542;2022-10-31T10:43:39;25.03;;;18.27;;
3054;SDS011;1537;52.018;8.542;2022-10-31T10:47:06;26.60;;;17.70;;
3054;SDS011;1537;52.018;8.542;2022-10-31T10:50:47;27.73;;;16.93;;
3054;SDS011;1537;52.018;8.542;2022-10-31T10:54:26;27.40;;;17.23;;
3054;SDS011;1537;52.018;8.542;2022-10-31T10:58:02;26.77;;;17.30;;
3054;SDS011;1537;52.018;8.542;2022-10-31T11:01:29;21.93;;;17.07;;
3054;SDS011;1537;52.018;8.542;2022-10-31T11:04:53;27.77;;;18.63;;
3054;SDS011;1537;52.018;8.542;2022-10-31T11:08:24;34.00;;;18.57;;
3054;SDS011;1537;52.018;8.542;2022-10-31T11:11:50;29.20;;;18.20;;
3054;SDS011;1537;52.018;8.542;2022-10-31T11:15:18;25.53;;;18.40;;
3054;SDS011;1537;52.018;8.542;2022-10-31T11:18:44;27.93;;;18.53;;
3054;SDS011;1537;52.018;8.542;2022-10-31T11:22:14;40.10;;;20.07;;
3054;SDS011;1537;52.018;8.542;2022-10-31T11:25:39;26.93;;;18.40;;
3054;SDS011;1537;52.018;8.542;2022-10-31T11:29:15;25.77;;;17.77;;
3054;SDS011;1537;52.018;8.542;2022-10-31T11:32:40;27.20;;;18.33;;
3054;SDS011;1537;52.018;8.542;2022-10-31T11:36:14;26.57;;;17.87;;
3054;SDS011;1537;52.018;8.542;2022-10-31T11:39:41;28.00;;;17.37;;
3054;SDS011;1537;52.018;8.542;2022-10-31T11:43:12;27.03;;;17.90;;
3054;SDS011;1537;52.018;8.542;2022-10-31T11:46:42;27.43;;;17.63;;
3054;SDS011;1537;52.018;8.542;2022-10-31T11:50:10;31.40;;;16.33;;
3054;SDS011;1537;52.018;8.542;2022-10-31T11:53:38;26.67;;;16.73;;
3054;SDS011;1537;52.018;8.542;2022-10-31T11:57:28;24.13;;;16.47;;
3054;SDS011;1537;52.018;8.542;2022-10-31T12:00:53;21.77;;;15.90;;
3054;SDS011;1537;52.018;8.542;2022-10-31T12:04:22;23.40;;;14.73;;
3054;SDS011;1537;52.018;8.542;2022-10-31T12:07:52;26.30;;;16.93;;
3054;SDS011;1537;52.018;8.542;2022-10-31T12:11:23;25.43;;;15.70;;
3054;SDS011;1537;52.018;8.542;2022-10-31T12:15:04;26.43;;;16.60;;
3054;SDS011;1537;52.018;8.542;2022-10-31T12:18:46;31.40;;;16.40;;
3054;SDS011;1537;52.018;8.542;2022-10-31T12:22:20;24.93;;;15.80;;
3054;SDS011;1537;52.018;8.542;2022-10-31T12:25:50;24.80;;;14.93;;
3054;SDS011;1537;52.018;8.542;2022-10-31T12:29:26;23.50;;;15.30;;
3054;SDS011;1537;52.018;8.542;2022-10-31T12:33:09;26.33;;;14.40;;
3054;SDS011;1537;52.018;8.542;2022-10-31T12:36:48;24.10;;;14.50;;
3054;SDS011;1537;52.018;8.542;2022-10-31T12:40:23;23.07;;;13.53;;
3054;SDS011;1537;52.018;8.542;2022-10-31T12:44:00;21.33;;;13.60;;
3054;SDS011;1537;52.018;8.542;2022-10-31T12:47:34;29.67;;;15.07;;
3054;SDS011;1537;52.018;8.542;2022-10-31T12:51:21;26.10;;;13.47;;
3054;SDS011;1537;52.018;8.542;2022-10-31T12:54:57;24.47;;;14.87;;
3054;SDS011;1537;52.018;8.542;2022-10-31T12:58:34;18.80;;;12.57;;
3054;SDS011;1537;52.018;8.542;2022-10-31T13:02:02;27.93;;;14.30;;
3054;SDS011;1537;52.018;8.542;2022-10-31T13:05:37;24.07;;;13.70;;
3054;SDS011;1537;52.018;8.542;2022-10-31T13:09:05;26.70;;;14.90;;
3054;SDS011;1537;52.018;8.542;2022-10-31T13:12:36;21.60;;;14.40;;
3054;SDS011;1537;52.018;8.542;2022-10-31T13:16:05;19.10;;;12.43;;
3054;SDS011;1537;52.018;8.542;2022-10-31T13:19:35;22.10;;;13.30;;
3054;SDS011;1537;52.018;8.542;2022-10-31T13:23:04;18.10;;;12.00;;
3054;SDS011;1537;52.018;8.542;2022-10-31T13:26:59;25.63;;;12.70;;
3054;SDS011;1537;52.018;8.542;2022-10-31T13:30:27;18.13;;;12.27;;
3054;SDS011;1537;52.018;8.542;2022-10-31T13:33:57;17.03;;;13.17;;
3054;SDS011;1537;52.018;8.542;2022-10-31T13:37:26;19.83;;;12.60;;
3054;SDS011;1537;52.018;8.542;2022-10-31T13:40:55;21.10;;;12.80;;
3054;SDS011;1537;52.018;8.542;2022-10-31T13:44:23;21.00;;;12.70;;
3054;SDS011;1537;52.018;8.542;2022-10-31T13:47:55;18.77;;;12.30;;
3054;SDS011;1537;52.018;8.542;2022-10-31T13:51:26;19.60;;;10.83;;
3054;SDS011;1537;52.018;8.542;2022-10-31T13:54:52;18.17;;;11.10;;
3054;SDS011;1537;52.018;8.542;2022-10-31T13:58:25;21.20;;;10.40;;
3054;SDS011;1537;52.018;8.542;2022-10-31T14:01:53;15.93;;;10.70;;
3054;SDS011;1537;52.018;8.542;2022-10-31T14:05:21;15.23;;;9.80;;
3054;SDS011;1537;52.018;8.542;2022-10-31T14:08:49;17.93;;;10.43;;
3054;SDS011;1537;52.018;8.542;2022-10-31T14:12:27;24.87;;;11.60;;
3054;SDS011;1537;52.018;8.542;2022-10-31T14:15:54;15.37;;;10.10;;
3054;SDS011;1537;52.018;8.542;2022-10-31T14:19:20;13.63;;;9.23;;
3054;SDS011;1537;52.018;8.542;2022-10-31T14:22:44;18.43;;;10.03;;
3054;SDS011;1537;52.018;8.542;2022-10-31T14:26:18;13.70;;;9.23;;
3054;SDS011;1537;52.018;8.542;2022-10-31T14:29:44;14.40;;;10.37;;
3054;SDS011;1537;52.018;8.542;2022-10-31T14:33:12;14.00;;;9.10;;
3054;SDS011;1537;52.018;8.542;2022-10-31T14:36:42;17.10;;;10.13;;
3054;SDS011;1537;52.018;8.542;2022-10-31T14:40:18;15.13;;;9.50;;
3054;SDS011;1537;52.018;8.542;2022-10-31T14:43:59;16.50;;;8.83;;
3054;SDS011;1537;52.018;8.542;2022-10-31T14:47:45;19.90;;;9.30;;
3054;SDS011;1537;52.018;8.542;2022-10-31T14:51:30;11.90;;;9.10;;
3054;SDS011;1537;52.018;8.542;2022-10-31T14:54:58;13.13;;;8.03;;
3054;SDS011;1537;52.018;8.542;2022-10-31T14:58:24;14.80;;;8.93;;
3054;SDS011;1537;52.018;8.542;2022-10-31T15:01:59;16.97;;;10.00;;
3054;SDS011;1537;52.018;8.542;2022-10-31T15:05:25;18.50;;;9.73;;
3054;SDS011;1537;52.018;8.542;2022-10-31T15:08:50;15.80;;;9.10;;
3054;SDS011;1537;52.018;8.542;2022-10-31T15:12:23;14.67;;;9.00;;
3054;SDS011;1537;52.018;8.542;2022-10-31T15:15:49;17.83;;;9.60;;
3054;SDS011;1537;52.018;8.542;2022-10-31T15:19:18;17.73;;;11.63;;
3054;SDS011;1537;52.018;8.542;2022-10-31T15:22:45;16.73;;;9.67;;
3054;SDS011;1537;52.018;8.542;2022-10-31T15:26:12;17.83;;;8.90;;
3054;SDS011;1537;52.018;8.542;2022-10-31T15:29:50;24.40;;;9.97;;
3054;SDS011;1537;52.018;8.542;2022-10-31T15:33:17;20.97;;;9.63;;
3054;SDS011;1537;52.018;8.542;2022-10-31T15:36:47;15.70;;;9.43;;
3054;SDS011;1537;52.018;8.542;2022-10-31T15:40:13;13.80;;;9.00;;
3054;SDS011;1537;52.018;8.542;2022-10-31T15:43:40;17.30;;;9.40;;
3054;SDS011;1537;52.018;8.542;2022-10-31T15:47:13;22.97;;;10.87;;
3054;SDS011;1537;52.018;8.542;2022-10-31T15:50:41;17.20;;;9.70;;
3054;SDS011;1537;52.018;8.542;2022-10-31T15:54:11;13.90;;;9.80;;
3054;SDS011;1537;52.018;8.542;2022-10-31T15:57:38;21.00;;;10.43;;
3054;SDS011;1537;52.018;8.542;2022-10-31T16:01:05;17.93;;;9.83;;
3054;SDS011;1537;52.018;8.542;2022-10-31T16:04:48;18.73;;;9.97;;
3054;SDS011;1537;52.018;8.542;2022-10-31T16:08:22;16.67;;;9.97;;
3054;SDS011;1537;52.018;8.542;2022-10-31T16:11:48;19.13;;;11.37;;
3054;SDS011;1537;52.018;8.542;2022-10-31T16:15:13;18.90;;;10.30;;
3054;SDS011;1537;52.018;8.542;2022-10-31T16:18:41;16.33;;;10.47;;
3054;SDS011;1537;52.018;8.542;2022-10-31T16:22:06;19.47;;;10.97;;
3054;SDS011;1537;52.018;8.542;2022-10-31T16:25:36;25.43;;;11.30;;
3054;SDS011;1537;52.018;8.542;2022-10-31T16:32:53;16.17;;;9.77;;
3054;SDS011;1537;52.018;8.542;2022-10-31T16:36:29;17.53;;;11.60;;
3054;SDS011;1537;52.018;8.542;2022-10-31T16:39:56;17.10;;;10.07;;
3054;SDS011;1537;52.018;8.542;2022-10-31T16:43:20;23.87;;;11.07;;
3054;SDS011;1537;52.018;8.542;2022-10-31T16:46:47;16.00;;;10.30;;
3054;SDS011;1537;52.018;8.542;2022-10-31T16:50:16;16.87;;;11.33;;
3054;SDS011;1537;52.018;8.542;2022-10-31T16:53:41;21.60;;;10.60;;
3054;SDS011;1537;52.018;8.542;2022-10-31T16:57:11;17.83;;;11.10;;
3054;SDS011;1537;52.018;8.542;2022-10-31T17:00:37;24.27;;;11.90;;
3054;SDS011;1537;52.018;8.542;2022-10-31T17:04:02;18.83;;;11.53;;
3054;SDS011;1537;52.018;8.542;2022-10-31T17:07:26;15.30;;;10.07;;
3054;SDS011;1537;52.018;8.542;2022-10-31T17:10:50;17.83;;;11.27;;
3054;SDS011;1537;52.018;8.542;2022-10-31T17:14:14;16.23;;;11.70;;
3054;SDS011;1537;52.018;8.542;2022-10-31T17:17:39;18.73;;;11.23;;
3054;SDS011;1537;52.018;8.542;2022-10-31T17:21:04;19.03;;;11.30;;
3054;SDS011;1537;52.018;8.542;2022-10-31T17:24:28;21.33;;;12.77;;
3054;SDS011;1537;52.018;8.542;2022-10-31T17:27:52;22.73;;;11.97;;
3054;SDS011;1537;52.018;8.542;2022-10-31T17:31:18;24.00;;;12.80;;
3054;SDS011;1537;52.018;8.542;2022-10-31T17:34:44;21.27;;;14.17;;
3054;SDS011;1537;52.018;8.542;2022-10-31T17:38:09;17.17;;;12.73;;
3054;SDS011;1537;52.018;8.542;2022-10-31T17:41:33;23.33;;;12.80;;
3054;SDS011;1537;52.018;8.542;2022-10-31T17:44:57;21.37;;;15.03;;
3054;SDS011;1537;52.018;8.542;2022-10-31T17:48:20;22.07;;;12.73;;
3054;SDS011;1537;52.018;8.542;2022-10-31T17:51:44;21.30;;;13.07;;
3054;SDS011;1537;52.018;8.542;2022-10-31T17:55:09;21.30;;;13.20;;
3054;SDS011;1537;52.018;8.542;2022-10-31T17:58:34;23.07;;;14.13;;
3054;SDS011;1537;52.018;8.542;2022-10-31T18:01:58;19.47;;;12.97;;
3054;SDS011;1537;52.018;8.542;2022-10-31T18:05:22;20.90;;;13.53;;
3054;SDS011;1537;52.018;8.542;2022-10-31T18:08:46;27.07;;;16.27;;
3054;SDS011;1537;52.018;8.542;2022-10-31T18:12:11;32.47;;;15.97;;
3054;SDS011;1537;52.018;8.542;2022-10-31T18:15:37;23.63;;;15.40;;
3054;SDS011;1537;52.018;8.542;2022-10-31T18:19:01;21.13;;;14.93;;
3054;SDS011;1537;52.018;8.542;2022-10-31T18:22:26;21.97;;;15.47;;
3054;SDS011;1537;52.018;8.542;2022-10-31T18:25:50;26.27;;;16.27;;
3054;SDS011;1537;52.018;8.542;2022-10-31T18:29:16;24.27;;;14.20;;
3054;SDS011;1537;52.018;8.542;2022-10-31T18:32:40;21.63;;;14.20;;
3054;SDS011;1537;52.018;8.542;2022-10-31T18:36:04;27.83;;;15.57;;
3054;SDS011;1537;52.018;8.542;2022-10-31T18:39:28;24.97;;;15.43;;
3054;SDS011;1537;52.018;8.542;2022-10-31T18:42:51;20.97;;;14.87;;
3054;SDS011;1537;52.018;8.542;2022-10-31T18:46:16;24.50;;;14.90;;
3054;SDS011;1537;52.018;8.542;2022-10-31T18:49:40;26.37;;;16.77;;
3054;SDS011;1537;52.018;8.542;2022-10-31T18:53:04;20.23;;;16.57;;
3054;SDS011;1537;52.018;8.542;2022-10-31T18:56:28;27.10;;;16.70;;
3054;SDS011;1537;52.018;8.542;2022-10-31T18:59:53;28.43;;;16.63;;
3054;SDS011;1537;52.018;8.542;2022-10-31T19:03:18;24.70;;;17.23;;
3054;SDS011;1537;52.018;8.542;2022-10-31T19:06:47;26.30;;;15.63;;
3054;SDS011;1537;52.018;8.542;2022-10-31T19:10:11;28.97;;;17.87;;
3054;SDS011;1537;52.018;8.542;2022-10-31T19:13:35;27.00;;;17.27;;
3054;SDS011;1537;52.018;8.542;2022-10-31T19:16:59;27.37;;;16.93;;
3054;SDS011;1537;52.018;8.542;2022-10-31T19:20:25;27.53;;;17.50;;
3054;SDS011;1537;52.018;8.542;2022-10-31T19:23:50;24.30;;;16.27;;
3054;SDS011;1537;52.018;8.542;2022-10-31T19:27:17;26.17;;;18.00;;
3054;SDS011;1537;52.018;8.542;2022-10-31T19:30:40;23.53;;;16.07;;
3054;SDS011;1537;52.018;8.542;2022-10-31T19:34:04;24.93;;;18.40;;
3054;SDS011;1537;52.018;8.542;2022-10-31T19:37:29;30.33;;;18.13;;
3054;SDS011;1537;52.018;8.542;2022-10-31T19:40:54;27.70;;;17.90;;
3054;SDS011;1537;52.018;8.542;2022-10-31T19:44:19;25.33;;;17.87;;
3054;SDS011;1537;52.018;8.542;2022-10-31T19:47:43;28.33;;;17.53;;
3054;SDS011;1537;52.018;8.542;2022-10-31T19:51:07;27.83;;;19.17;;
3054;SDS011;1537;52.018;8.542;2022-10-31T19:54:33;30.27;;;20.10;;
3054;SDS011;1537;52.018;8.542;2022-10-31T19:57:57;27.90;;;19.70;;
3054;SDS011;1537;52.018;8.542;2022-10-31T20:01:32;24.30;;;19.50;;
3054;SDS011;1537;52.018;8.542;2022-10-31T20:04:56;27.40;;;20.10;;
3054;SDS011;1537;52.018;8.542;2022-10-31T20:08:20;33.50;;;19.63;;
3054;SDS011;1537;52.018;8.542;2022-10-31T20:11:45;25.63;;;17.40;;
3054;SDS011;1537;52.018;8.542;2022-10-31T20:15:09;26.40;;;18.57;;
3054;SDS011;1537;52.018;8.542;2022-10-31T20:18:33;29.83;;;18.80;;
3054;SDS011;1537;52.018;8.542;2022-10-31T20:21:57;26.70;;;20.10;;
3054;SDS011;1537;52.018;8.542;2022-10-31T20:25:20;28.00;;;18.73;;
3054;SDS011;1537;52.018;8.542;2022-10-31T20:28:45;29.20;;;19.10;;
3054;SDS011;1537;52.018;8.542;2022-10-31T20:32:09;27.83;;;19.07;;
3054;SDS011;1537;52.018;8.542;2022-10-31T20:35:35;24.67;;;17.63;;
3054;SDS011;1537;52.018;8.542;2022-10-31T20:38:59;27.40;;;17.53;;
3054;SDS011;1537;52.018;8.542;2022-10-31T20:42:22;27.80;;;18.80;;
3054;SDS011;1537;52.018;8.542;2022-10-31T20:45:47;24.43;;;15.83;;
3054;SDS011;1537;52.018;8.542;2022-10-31T20:49:11;28.40;;;17.40;;
3054;SDS011;1537;52.018;8.542;2022-10-31T20:52:35;29.73;;;19.27;;
3054;SDS011;1537;52.018;8.542;2022-10-31T20:55:59;30.23;;;18.13;;
3054;SDS011;1537;52.018;8.542;2022-10-31T20:59:28;28.50;;;19.20;;
3054;SDS011;1537;52.018;8.542;2022-10-31T21:02:53;25.63;;;17.03;;
3054;SDS011;1537;52.018;8.542;2022-10-31T21:06:17;24.37;;;16.67;;